createdAt,value
2018-12-11T00:00:53.856Z,1011.56
2018-12-11T00:01:53.848Z,1011.56
2018-12-11T00:02:53.826Z,1011.59
2018-12-11T00:03:53.834Z,1011.61
2018-12-11T00:04:53.831Z,1011.59
2018-12-11T00:05:53.794Z,1011.57
2018-12-11T00:06:53.805Z,1011.61
2018-12-11T00:07:53.783Z,1011.62
2018-12-11T00:08:53.796Z,1011.61
2018-12-11T00:09:53.753Z,1011.60
2018-12-11T00:10:53.741Z,1011.62
2018-12-11T00:11:53.727Z,1011.66
2018-12-11T00:12:53.716Z,1011.63
2018-12-11T00:13:53.729Z,1011.65
2018-12-11T00:14:53.742Z,1011.60
2018-12-11T00:15:53.687Z,1011.66
2018-12-11T00:16:53.673Z,1011.59
2018-12-11T00:17:53.676Z,1011.65
2018-12-11T00:18:53.649Z,1011.65
2018-12-11T00:19:53.654Z,1011.60
2018-12-11T00:20:53.627Z,1011.64
2018-12-11T00:21:53.614Z,1011.65
2018-12-11T00:22:53.606Z,1011.60
2018-12-11T00:23:53.599Z,1011.66
2018-12-11T00:24:53.600Z,1011.61
2018-12-11T00:25:53.600Z,1011.63
2018-12-11T00:26:53.562Z,1011.63
2018-12-11T00:27:53.568Z,1011.71
2018-12-11T00:28:53.537Z,1011.71
2018-12-11T00:29:53.546Z,1011.70
2018-12-11T00:30:53.541Z,1011.69
2018-12-11T00:31:53.505Z,1011.75
2018-12-11T00:32:53.497Z,1011.63
2018-12-11T00:33:53.508Z,1011.55
2018-12-11T00:34:53.492Z,1011.57
2018-12-11T00:35:53.461Z,1011.60
2018-12-11T00:36:53.462Z,1011.64
2018-12-11T00:37:53.442Z,1011.53
2018-12-11T00:38:53.426Z,1011.60
2018-12-11T00:39:53.447Z,1011.60
2018-12-11T00:40:53.417Z,1011.59
2018-12-11T00:41:53.395Z,1011.55
2018-12-11T00:42:53.394Z,1011.59
2018-12-11T00:43:53.372Z,1011.56
2018-12-11T00:44:53.372Z,1011.56
2018-12-11T00:45:53.350Z,1011.63
2018-12-11T00:46:53.345Z,1011.57
2018-12-11T00:47:53.333Z,1011.56
2018-12-11T00:48:53.317Z,1011.56
2018-12-11T00:49:53.345Z,1011.49
2018-12-11T00:50:53.325Z,1011.52
2018-12-11T00:51:53.309Z,1011.54
2018-12-11T00:52:53.270Z,1011.56
2018-12-11T00:53:53.266Z,1011.57
2018-12-11T00:54:53.266Z,1011.54
2018-12-11T00:55:53.236Z,1011.51
2018-12-11T00:56:53.228Z,1011.53
2018-12-11T00:57:53.224Z,1011.51
2018-12-11T00:58:53.206Z,1011.47
2018-12-11T00:59:53.213Z,1011.46
2018-12-11T01:00:53.184Z,1011.51
2018-12-11T01:01:53.171Z,1011.51
2018-12-11T01:02:53.196Z,1011.52
2018-12-11T01:03:53.170Z,1011.49
2018-12-11T01:04:53.157Z,1011.59
2018-12-11T01:05:53.127Z,1011.54
2018-12-11T01:06:53.124Z,1011.59
2018-12-11T01:07:53.136Z,1011.67
2018-12-11T01:08:53.091Z,1011.63
2018-12-11T01:09:53.099Z,1011.60
2018-12-11T01:10:53.104Z,1011.63
2018-12-11T01:11:53.073Z,1011.63
2018-12-11T01:12:53.062Z,1011.62
2018-12-11T01:13:53.062Z,1011.63
2018-12-11T01:14:53.035Z,1011.68
2018-12-11T01:15:53.022Z,1011.78
2018-12-11T01:16:53.019Z,1011.82
2018-12-11T01:17:53.005Z,1011.79
2018-12-11T01:18:52.979Z,1011.74
2018-12-11T01:19:52.970Z,1011.76
2018-12-11T01:20:52.973Z,1011.75
2018-12-11T01:21:52.960Z,1011.72
2018-12-11T01:22:52.939Z,1011.79
2018-12-11T01:23:52.926Z,1011.75
2018-12-11T01:24:52.915Z,1011.83
2018-12-11T01:25:52.925Z,1011.86
2018-12-11T01:26:52.910Z,1011.81
2018-12-11T01:27:52.885Z,1011.83
2018-12-11T01:28:52.875Z,1011.73
2018-12-11T01:29:52.860Z,1011.78
2018-12-11T01:30:52.866Z,1011.77
2018-12-11T01:31:52.835Z,1011.83
2018-12-11T01:32:52.830Z,1011.77
2018-12-11T01:33:52.826Z,1011.74
2018-12-11T01:34:52.800Z,1011.83
2018-12-11T01:35:52.805Z,1011.79
2018-12-11T01:36:52.780Z,1011.75
2018-12-11T01:37:52.769Z,1011.83
2018-12-11T01:38:52.770Z,1011.79
2018-12-11T01:39:52.745Z,1011.81
2018-12-11T01:40:52.750Z,1011.84
2018-12-11T01:41:52.730Z,1011.84
2018-12-11T01:42:52.713Z,1011.88
2018-12-11T01:43:52.703Z,1011.89
2018-12-11T01:44:52.691Z,1011.94
2018-12-11T01:45:52.696Z,1011.94
2018-12-11T01:46:52.668Z,1011.97
2018-12-11T01:47:52.662Z,1011.95
2018-12-11T01:48:52.647Z,1011.95
2018-12-11T01:49:52.655Z,1011.95
2018-12-11T01:50:52.635Z,1012.01
2018-12-11T01:51:52.611Z,1011.98
2018-12-11T01:52:52.599Z,1012.00
2018-12-11T01:53:52.590Z,1011.99
2018-12-11T01:54:52.577Z,1011.97
2018-12-11T01:55:52.584Z,1011.96
2018-12-11T01:56:52.571Z,1011.97
2018-12-11T01:57:52.552Z,1011.94
2018-12-11T01:58:52.552Z,1011.96
2018-12-11T01:59:52.558Z,1011.99
2018-12-11T02:00:52.534Z,1012.01
2018-12-11T02:01:52.503Z,1012.02
2018-12-11T02:02:52.492Z,1011.99
2018-12-11T02:03:52.482Z,1012.00
2018-12-11T02:04:52.471Z,1011.98
2018-12-11T02:05:52.490Z,1011.98
2018-12-11T02:06:52.450Z,1011.94
2018-12-11T02:07:52.445Z,1011.95
2018-12-11T02:08:52.422Z,1011.92
2018-12-11T02:09:52.422Z,1011.89
2018-12-11T02:10:52.414Z,1011.88
2018-12-11T02:11:52.414Z,1011.87
2018-12-11T02:12:52.402Z,1011.85
2018-12-11T02:13:52.380Z,1011.89
2018-12-11T02:14:52.386Z,1011.86
2018-12-11T02:15:52.393Z,1011.86
2018-12-11T02:16:52.344Z,1011.87
2018-12-11T02:17:52.330Z,1011.84
2018-12-11T02:18:52.338Z,1011.87
2018-12-11T02:19:52.313Z,1011.85
2018-12-11T02:20:52.287Z,1011.91
2018-12-11T02:21:52.293Z,1011.88
2018-12-11T02:22:52.293Z,1011.90
2018-12-11T02:23:52.269Z,1011.91
2018-12-11T02:24:52.247Z,1011.90
2018-12-11T02:25:52.235Z,1011.96
2018-12-11T02:26:52.231Z,1011.84
2018-12-11T02:27:52.216Z,1011.87
2018-12-11T02:28:52.201Z,1011.93
2018-12-11T02:29:52.223Z,1011.92
2018-12-11T02:30:52.191Z,1011.92
2018-12-11T02:31:52.199Z,1011.93
2018-12-11T02:32:52.174Z,1011.87
2018-12-11T02:33:52.166Z,1011.87
2018-12-11T02:34:52.137Z,1011.88
2018-12-11T02:35:52.141Z,1011.88
2018-12-11T02:36:52.129Z,1011.94
2018-12-11T02:37:52.102Z,1011.93
2018-12-11T02:38:52.087Z,1011.90
2018-12-11T02:39:52.101Z,1011.94
2018-12-11T02:40:52.080Z,1011.96
2018-12-11T02:41:52.073Z,1011.94
2018-12-11T02:42:52.072Z,1011.96
2018-12-11T02:43:52.130Z,1011.95
2018-12-11T02:44:52.022Z,1011.97
2018-12-11T02:45:52.035Z,1011.93
2018-12-11T02:46:52.023Z,1011.96
2018-12-11T02:47:51.993Z,1011.92
2018-12-11T02:48:51.979Z,1011.86
2018-12-11T02:49:51.967Z,1011.93
2018-12-11T02:50:51.969Z,1011.88
2018-12-11T02:51:51.961Z,1011.94
2018-12-11T02:52:51.934Z,1011.89
2018-12-11T02:53:51.935Z,1011.93
2018-12-11T02:54:51.914Z,1011.93
2018-12-11T02:55:51.898Z,1011.96
2018-12-11T02:56:51.909Z,1011.93
2018-12-11T02:57:51.887Z,1011.95
2018-12-11T02:58:51.896Z,1011.91
2018-12-11T02:59:51.855Z,1011.93
2018-12-11T03:00:51.847Z,1011.95
2018-12-11T03:01:51.845Z,1011.97
2018-12-11T03:02:51.873Z,1011.97
2018-12-11T03:03:52.525Z,1011.94
2018-12-11T03:04:51.805Z,1011.99
2018-12-11T03:05:51.792Z,1011.89
2018-12-11T03:06:51.838Z,1011.95
2018-12-11T03:07:51.773Z,1011.94
2018-12-11T03:08:51.800Z,1011.97
2018-12-11T03:09:51.745Z,1011.98
2018-12-11T03:10:51.739Z,1011.98
2018-12-11T03:11:51.745Z,1012.01
2018-12-11T03:12:51.718Z,1011.97
2018-12-11T03:13:51.698Z,1011.96
2018-12-11T03:14:51.691Z,1011.96
2018-12-11T03:15:51.683Z,1011.92
2018-12-11T03:16:51.674Z,1011.98
2018-12-11T03:17:51.670Z,1011.99
2018-12-11T03:18:51.643Z,1011.93
2018-12-11T03:19:51.638Z,1011.98
2018-12-11T03:20:51.623Z,1011.94
2018-12-11T03:21:51.628Z,1011.95
2018-12-11T03:22:51.612Z,1011.92
2018-12-11T03:23:51.587Z,1011.93
2018-12-11T03:24:51.577Z,1011.95
2018-12-11T03:25:51.581Z,1011.98
2018-12-11T03:26:51.567Z,1011.99
2018-12-11T03:27:51.597Z,1011.97
2018-12-11T03:28:51.550Z,1012.02
2018-12-11T03:29:51.525Z,1012.01
2018-12-11T03:30:51.534Z,1011.99
2018-12-11T03:31:51.501Z,1012.00
2018-12-11T03:32:51.509Z,1011.97
2018-12-11T03:33:51.487Z,1011.98
2018-12-11T03:34:51.466Z,1012.00
2018-12-11T03:35:51.466Z,1011.97
2018-12-11T03:36:51.453Z,1011.90
2018-12-11T03:37:51.466Z,1011.88
2018-12-11T03:38:51.424Z,1011.89
2018-12-11T03:39:51.411Z,1011.88
2018-12-11T03:40:51.403Z,1011.91
2018-12-11T03:41:51.385Z,1011.85
2018-12-11T03:42:51.394Z,1011.91
2018-12-11T03:43:51.369Z,1011.91
2018-12-11T03:44:51.380Z,1011.85
2018-12-11T03:45:51.341Z,1011.91
2018-12-11T03:46:51.376Z,1011.93
2018-12-11T03:47:51.333Z,1011.89
2018-12-11T03:48:51.314Z,1011.84
2018-12-11T03:49:51.360Z,1011.86
2018-12-11T03:50:51.300Z,1011.86
2018-12-11T03:51:51.273Z,1011.87
2018-12-11T03:52:51.276Z,1011.88
2018-12-11T03:53:51.259Z,1011.85
2018-12-11T03:54:51.267Z,1011.86
2018-12-11T03:55:51.235Z,1011.88
2018-12-11T03:56:51.250Z,1011.89
2018-12-11T03:57:51.223Z,1011.93
2018-12-11T03:58:51.196Z,1011.95
2018-12-11T03:59:51.187Z,1011.95
2018-12-11T04:00:51.183Z,1011.95
2018-12-11T04:01:51.168Z,1011.95
2018-12-11T04:02:51.172Z,1011.95
2018-12-11T04:03:51.142Z,1011.92
2018-12-11T04:04:51.139Z,1011.97
2018-12-11T04:05:51.118Z,1011.93
2018-12-11T04:06:51.107Z,1011.94
2018-12-11T04:07:51.127Z,1011.96
2018-12-11T04:08:51.094Z,1011.99
2018-12-11T04:09:51.074Z,1012.01
2018-12-11T04:10:51.071Z,1011.97
2018-12-11T04:11:51.053Z,1011.96
2018-12-11T04:12:51.074Z,1011.91
2018-12-11T04:13:51.046Z,1011.98
2018-12-11T04:14:51.026Z,1011.96
2018-12-11T04:15:51.013Z,1011.95
2018-12-11T04:16:50.999Z,1011.97
2018-12-11T04:17:51.183Z,1011.92
2018-12-11T04:18:50.983Z,1011.98
2018-12-11T04:19:50.963Z,1011.97
2018-12-11T04:20:50.953Z,1011.95
2018-12-11T04:21:50.943Z,1011.91
2018-12-11T04:22:50.928Z,1011.96
2018-12-11T04:23:50.942Z,1011.90
2018-12-11T04:24:50.921Z,1011.94
2018-12-11T04:25:50.893Z,1011.94
2018-12-11T04:26:50.884Z,1011.97
2018-12-11T04:27:50.873Z,1011.95
2018-12-11T04:28:50.877Z,1011.95
2018-12-11T04:29:50.857Z,1011.98
2018-12-11T04:30:50.869Z,1011.96
2018-12-11T04:31:50.831Z,1011.96
2018-12-11T04:32:50.819Z,1011.99
2018-12-11T04:33:50.824Z,1011.95
2018-12-11T04:34:50.794Z,1011.97
2018-12-11T04:35:50.789Z,1011.96
2018-12-11T04:36:50.782Z,1011.96
2018-12-11T04:37:50.760Z,1011.99
2018-12-11T04:38:50.761Z,1011.92
2018-12-11T04:39:50.743Z,1011.95
2018-12-11T04:40:50.736Z,1011.91
2018-12-11T04:41:50.715Z,1011.93
2018-12-11T04:42:50.707Z,1011.91
2018-12-11T04:43:50.783Z,1011.94
2018-12-11T04:44:50.683Z,1011.93
2018-12-11T04:45:50.670Z,1011.92
2018-12-11T04:46:50.665Z,1011.93
2018-12-11T04:47:50.648Z,1011.94
2018-12-11T04:48:50.657Z,1011.98
2018-12-11T04:49:50.639Z,1011.95
2018-12-11T04:50:50.616Z,1011.96
2018-12-11T04:51:50.607Z,1011.97
2018-12-11T04:52:50.593Z,1011.92
2018-12-11T04:53:50.601Z,1011.97
2018-12-11T04:54:50.573Z,1011.97
2018-12-11T04:55:50.565Z,1011.96
2018-12-11T04:56:50.573Z,1011.95
2018-12-11T04:57:50.543Z,1011.90
2018-12-11T04:58:50.538Z,1011.98
2018-12-11T04:59:50.517Z,1011.93
2018-12-11T05:00:50.504Z,1011.90
2018-12-11T05:01:50.511Z,1011.90
2018-12-11T05:02:50.482Z,1011.93
2018-12-11T05:03:50.505Z,1011.93
2018-12-11T05:04:50.463Z,1011.94
2018-12-11T05:05:50.449Z,1012.04
2018-12-11T05:06:50.445Z,1012.00
2018-12-11T05:07:50.427Z,1011.96
2018-12-11T05:08:50.439Z,1012.01
2018-12-11T05:09:50.403Z,1011.93
2018-12-11T05:10:50.405Z,1011.94
2018-12-11T05:11:50.381Z,1011.97
2018-12-11T05:12:50.370Z,1011.99
2018-12-11T05:13:51.222Z,1011.97
2018-12-11T05:14:50.359Z,1011.98
2018-12-11T05:15:50.339Z,1011.97
2018-12-11T05:16:50.353Z,1011.93
2018-12-11T05:17:50.328Z,1011.98
2018-12-11T05:18:50.307Z,1011.97
2018-12-11T05:19:50.313Z,1011.93
2018-12-11T05:20:50.291Z,1011.92
2018-12-11T05:21:50.287Z,1011.94
2018-12-11T05:22:50.272Z,1011.95
2018-12-11T05:23:50.254Z,1011.94
2018-12-11T05:24:50.250Z,1011.96
2018-12-11T05:25:50.227Z,1012.00
2018-12-11T05:26:50.214Z,1011.98
2018-12-11T05:27:50.214Z,1011.97
2018-12-11T05:28:50.192Z,1011.92
2018-12-11T05:29:50.255Z,1011.92
2018-12-11T05:30:50.180Z,1011.94
2018-12-11T05:31:50.164Z,1011.99
2018-12-11T05:32:50.156Z,1012.01
2018-12-11T05:33:50.154Z,1011.97
2018-12-11T05:34:50.138Z,1011.97
2018-12-11T05:35:50.128Z,1012.00
2018-12-11T05:36:50.172Z,1012.03
2018-12-11T05:37:50.091Z,1011.99
2018-12-11T05:38:50.100Z,1011.99
2018-12-11T05:39:50.156Z,1012.02
2018-12-11T05:40:50.059Z,1012.02
2018-12-11T05:41:50.108Z,1012.05
2018-12-11T05:42:50.037Z,1012.03
2018-12-11T05:43:50.026Z,1012.02
2018-12-11T05:44:50.026Z,1012.01
2018-12-11T05:45:50.006Z,1012.04
2018-12-11T05:46:49.994Z,1012.01
2018-12-11T05:47:49.981Z,1011.97
2018-12-11T05:48:49.968Z,1011.98
2018-12-11T05:49:49.970Z,1011.94
2018-12-11T05:50:49.949Z,1011.98
2018-12-11T05:51:49.937Z,1011.95
2018-12-11T05:52:49.929Z,1011.95
2018-12-11T05:53:49.912Z,1011.98
2018-12-11T05:54:49.960Z,1011.95
2018-12-11T05:55:50.530Z,1012.00
2018-12-11T05:56:50.076Z,1012.01
2018-12-11T05:57:49.870Z,1012.02
2018-12-11T05:58:49.923Z,1012.08
2018-12-11T05:59:49.857Z,1012.03
2018-12-11T06:00:49.836Z,1012.06
2018-12-11T06:01:49.828Z,1012.04
2018-12-11T06:02:49.838Z,1012.02
2018-12-11T06:03:49.832Z,1012.06
2018-12-11T06:04:49.838Z,1012.17
2018-12-11T06:05:49.778Z,1012.15
2018-12-11T06:06:49.781Z,1012.12
2018-12-11T06:07:49.778Z,1012.10
2018-12-11T06:08:49.753Z,1012.06
2018-12-11T06:09:49.740Z,1012.08
2018-12-11T06:10:49.734Z,1012.07
2018-12-11T06:11:49.734Z,1012.03
2018-12-11T06:12:49.701Z,1012.05
2018-12-11T06:13:49.713Z,1012.08
2018-12-11T06:14:49.683Z,1012.03
2018-12-11T06:15:49.691Z,1012.00
2018-12-11T06:16:49.663Z,1011.97
2018-12-11T06:17:49.679Z,1011.99
2018-12-11T06:18:49.642Z,1012.01
2018-12-11T06:19:49.623Z,1012.02
2018-12-11T06:20:49.638Z,1011.99
2018-12-11T06:21:49.599Z,1012.04
2018-12-11T06:22:49.592Z,1012.03
2018-12-11T06:23:49.579Z,1012.11
2018-12-11T06:24:49.577Z,1012.11
2018-12-11T06:25:49.591Z,1012.14
2018-12-11T06:26:49.543Z,1012.15
2018-12-11T06:27:49.538Z,1012.19
2018-12-11T06:28:49.543Z,1012.19
2018-12-11T06:29:49.522Z,1012.16
2018-12-11T06:30:49.512Z,1012.19
2018-12-11T06:31:49.523Z,1012.20
2018-12-11T06:32:49.479Z,1012.20
2018-12-11T06:33:49.466Z,1012.22
2018-12-11T06:34:49.454Z,1012.21
2018-12-11T06:35:49.480Z,1012.22
2018-12-11T06:36:49.447Z,1012.19
2018-12-11T06:37:49.436Z,1012.23
2018-12-11T06:38:49.419Z,1012.23
2018-12-11T06:39:49.401Z,1012.22
2018-12-11T06:40:49.399Z,1012.22
2018-12-11T06:41:49.389Z,1012.20
2018-12-11T06:42:49.385Z,1012.18
2018-12-11T06:43:49.356Z,1012.22
2018-12-11T06:44:49.349Z,1012.19
2018-12-11T06:45:49.416Z,1012.18
2018-12-11T06:46:49.328Z,1012.19
2018-12-11T06:47:49.316Z,1012.15
2018-12-11T06:48:49.322Z,1012.20
2018-12-11T06:49:49.298Z,1012.22
2018-12-11T06:50:49.310Z,1012.24
2018-12-11T06:51:49.264Z,1012.22
2018-12-11T06:52:49.253Z,1012.27
2018-12-11T06:53:49.259Z,1012.28
2018-12-11T06:54:49.235Z,1012.30
2018-12-11T06:55:49.276Z,1012.27
2018-12-11T06:56:49.217Z,1012.25
2018-12-11T06:57:49.202Z,1012.28
2018-12-11T06:58:49.191Z,1012.29
2018-12-11T06:59:49.184Z,1012.29
2018-12-11T07:00:49.163Z,1012.26
2018-12-11T07:01:49.188Z,1012.30
2018-12-11T07:02:49.143Z,1012.30
2018-12-11T07:03:49.133Z,1012.32
2018-12-11T07:04:49.141Z,1012.31
2018-12-11T07:05:49.111Z,1012.32
2018-12-11T07:06:49.108Z,1012.33
2018-12-11T07:07:49.083Z,1012.35
2018-12-11T07:08:49.076Z,1012.30
2018-12-11T07:09:49.067Z,1012.31
2018-12-11T07:10:49.069Z,1012.24
2018-12-11T07:11:49.079Z,1012.25
2018-12-11T07:12:49.030Z,1012.21
2018-12-11T07:13:49.021Z,1012.30
2018-12-11T07:14:49.014Z,1012.22
2018-12-11T07:15:49.006Z,1012.28
2018-12-11T07:16:48.999Z,1012.28
2018-12-11T07:17:48.973Z,1012.29
2018-12-11T07:18:48.974Z,1012.31
2018-12-11T07:19:48.953Z,1012.35
2018-12-11T07:20:48.939Z,1012.34
2018-12-11T07:21:48.963Z,1012.35
2018-12-11T07:22:48.933Z,1012.37
2018-12-11T07:23:48.929Z,1012.34
2018-12-11T07:24:48.897Z,1012.40
2018-12-11T07:25:48.893Z,1012.45
2018-12-11T07:26:48.921Z,1012.45
2018-12-11T07:27:48.869Z,1012.40
2018-12-11T07:28:48.857Z,1012.47
2018-12-11T07:29:48.838Z,1012.46
2018-12-11T07:30:48.830Z,1012.44
2018-12-11T07:31:48.823Z,1012.41
2018-12-11T07:32:48.822Z,1012.40
2018-12-11T07:33:51.024Z,1012.40
2018-12-11T07:34:48.913Z,1012.43
2018-12-11T07:35:48.773Z,1012.42
2018-12-11T07:36:48.771Z,1012.42
2018-12-11T07:37:48.779Z,1012.42
2018-12-11T07:38:48.744Z,1012.38
2018-12-11T07:39:48.744Z,1012.33
2018-12-11T07:40:48.749Z,1012.39
2018-12-11T07:41:48.705Z,1012.42
2018-12-11T07:42:48.707Z,1012.36
2018-12-11T07:43:48.689Z,1012.38
2018-12-11T07:44:48.691Z,1012.43
2018-12-11T07:45:48.659Z,1012.44
2018-12-11T07:46:48.650Z,1012.51
2018-12-11T07:47:48.655Z,1012.47
2018-12-11T07:48:48.641Z,1012.51
2018-12-11T07:49:48.618Z,1012.53
2018-12-11T07:50:48.616Z,1012.61
2018-12-11T07:51:48.601Z,1012.60
2018-12-11T07:52:48.591Z,1012.68
2018-12-11T07:53:48.572Z,1012.65
2018-12-11T07:54:48.571Z,1012.66
2018-12-11T07:55:48.556Z,1012.60
2018-12-11T07:56:48.559Z,1012.61
2018-12-11T07:57:48.562Z,1012.63
2018-12-11T07:58:48.515Z,1012.61
2018-12-11T07:59:48.506Z,1012.59
2018-12-11T08:00:48.500Z,1012.61
2018-12-11T08:01:48.486Z,1012.64
2018-12-11T08:02:48.488Z,1012.67
2018-12-11T08:03:48.473Z,1012.63
2018-12-11T08:04:48.465Z,1012.64
2018-12-11T08:05:48.444Z,1012.58
2018-12-11T08:06:48.444Z,1012.59
2018-12-11T08:07:48.452Z,1012.57
2018-12-11T08:08:48.405Z,1012.60
2018-12-11T08:09:48.396Z,1012.61
2018-12-11T08:10:48.410Z,1012.60
2018-12-11T08:11:48.379Z,1012.60
2018-12-11T08:12:48.361Z,1012.63
2018-12-11T08:13:48.433Z,1012.61
2018-12-11T08:14:48.335Z,1012.64
2018-12-11T08:15:48.339Z,1012.63
2018-12-11T08:16:48.385Z,1012.63
2018-12-11T08:17:48.308Z,1012.68
2018-12-11T08:18:48.306Z,1012.68
2018-12-11T08:19:48.288Z,1012.70
2018-12-11T08:20:48.301Z,1012.69
2018-12-11T08:21:48.258Z,1012.72
2018-12-11T08:22:48.273Z,1012.73
2018-12-11T08:23:48.250Z,1012.70
2018-12-11T08:24:48.235Z,1012.73
2018-12-11T08:25:48.211Z,1012.69
2018-12-11T08:26:48.204Z,1012.72
2018-12-11T08:27:48.193Z,1012.71
2018-12-11T08:28:48.200Z,1012.74
2018-12-11T08:29:48.171Z,1012.70
2018-12-11T08:30:48.200Z,1012.68
2018-12-11T08:31:48.150Z,1012.70
2018-12-11T08:32:48.138Z,1012.67
2018-12-11T08:33:48.153Z,1012.63
2018-12-11T08:34:48.111Z,1012.63
2018-12-11T08:35:48.108Z,1012.57
2018-12-11T08:36:48.122Z,1012.59
2018-12-11T08:37:48.081Z,1012.58
2018-12-11T08:38:48.086Z,1012.58
2018-12-11T08:39:48.066Z,1012.55
2018-12-11T08:40:48.051Z,1012.62
2018-12-11T08:41:48.034Z,1012.60
2018-12-11T08:42:48.024Z,1012.61
2018-12-11T08:43:48.144Z,1012.59
2018-12-11T08:44:51.194Z,1012.59
2018-12-11T08:45:48.010Z,1012.61
2018-12-11T08:46:47.981Z,1012.63
2018-12-11T08:47:47.975Z,1012.60
2018-12-11T08:48:47.978Z,1012.57
2018-12-11T08:49:47.958Z,1012.56
2018-12-11T08:50:47.940Z,1012.57
2018-12-11T08:51:48.347Z,1012.53
2018-12-11T08:52:47.913Z,1012.50
2018-12-11T08:53:47.945Z,1012.54
2018-12-11T08:54:47.888Z,1012.53
2018-12-11T08:55:47.879Z,1012.57
2018-12-11T08:56:47.890Z,1012.55
2018-12-11T08:57:47.858Z,1012.63
2018-12-11T08:58:47.882Z,1012.58
2018-12-11T08:59:47.849Z,1012.57
2018-12-11T09:00:47.823Z,1012.57
2018-12-11T09:01:47.847Z,1012.57
2018-12-11T09:02:47.802Z,1012.57
2018-12-11T09:03:47.861Z,1012.59
2018-12-11T09:04:47.785Z,1012.61
2018-12-11T09:05:47.788Z,1012.64
2018-12-11T09:06:47.778Z,1012.63
2018-12-11T09:07:47.753Z,1012.60
2018-12-11T09:08:47.735Z,1012.63
2018-12-11T09:09:47.740Z,1012.64
2018-12-11T09:10:47.716Z,1012.64
2018-12-11T09:11:47.700Z,1012.67
2018-12-11T09:12:47.694Z,1012.66
2018-12-11T09:13:47.678Z,1012.70
2018-12-11T09:14:47.688Z,1012.67
2018-12-11T09:15:47.658Z,1012.70
2018-12-11T09:16:47.643Z,1012.69
2018-12-11T09:17:47.636Z,1012.70
2018-12-11T09:18:47.631Z,1012.69
2018-12-11T09:19:47.631Z,1012.74
2018-12-11T09:20:47.609Z,1012.80
2018-12-11T09:21:47.608Z,1012.78
2018-12-11T09:22:47.577Z,1012.79
2018-12-11T09:23:47.572Z,1012.81
2018-12-11T09:24:47.570Z,1012.82
2018-12-11T09:25:47.553Z,1012.85
2018-12-11T09:26:47.538Z,1012.89
2018-12-11T09:27:47.526Z,1012.89
2018-12-11T09:28:47.511Z,1012.90
2018-12-11T09:29:47.568Z,1012.90
2018-12-11T09:30:47.492Z,1012.86
2018-12-11T09:31:47.487Z,1012.82
2018-12-11T09:32:47.465Z,1012.85
2018-12-11T09:33:47.469Z,1012.84
2018-12-11T09:34:47.476Z,1012.86
2018-12-11T09:35:47.433Z,1012.87
2018-12-11T09:36:47.427Z,1012.84
2018-12-11T09:37:47.413Z,1012.91
2018-12-11T09:38:47.452Z,1012.89
2018-12-11T09:39:47.417Z,1012.87
2018-12-11T09:40:47.379Z,1012.86
2018-12-11T09:41:47.373Z,1012.87
2018-12-11T09:42:47.368Z,1012.87
2018-12-11T09:43:47.344Z,1012.88
2018-12-11T09:44:47.350Z,1012.97
2018-12-11T09:45:47.336Z,1012.96
2018-12-11T09:46:47.314Z,1012.93
2018-12-11T09:47:47.297Z,1012.98
2018-12-11T09:48:47.297Z,1012.97
2018-12-11T09:49:47.292Z,1012.95
2018-12-11T09:50:47.275Z,1013.04
2018-12-11T09:51:47.261Z,1013.02
2018-12-11T09:52:47.272Z,1012.97
2018-12-11T09:53:47.229Z,1013.01
2018-12-11T09:54:47.234Z,1012.96
2018-12-11T09:55:47.206Z,1013.03
2018-12-11T09:56:47.215Z,1012.97
2018-12-11T09:57:47.186Z,1012.99
2018-12-11T09:58:47.177Z,1012.99
2018-12-11T09:59:47.179Z,1012.99
2018-12-11T10:00:47.157Z,1013.01
2018-12-11T10:01:47.143Z,1013.04
2018-12-11T10:02:47.133Z,1013.00
2018-12-11T10:03:47.135Z,1013.02
2018-12-11T10:04:47.125Z,1012.99
2018-12-11T10:05:47.095Z,1013.02
2018-12-11T10:06:47.084Z,1013.02
2018-12-11T10:07:47.080Z,1013.03
2018-12-11T10:08:47.064Z,1013.05
2018-12-11T10:09:47.059Z,1013.04
2018-12-11T10:10:47.057Z,1013.07
2018-12-11T10:11:47.047Z,1013.03
2018-12-11T10:12:47.023Z,1013.04
2018-12-11T10:13:47.022Z,1013.06
2018-12-11T10:14:47.006Z,1013.03
2018-12-11T10:15:47.032Z,1013.02
2018-12-11T10:16:46.976Z,1013.01
2018-12-11T10:17:46.990Z,1013.01
2018-12-11T10:18:46.955Z,1013.05
2018-12-11T10:19:46.944Z,1013.05
2018-12-11T10:20:47.049Z,1013.07
2018-12-11T10:21:46.917Z,1013.00
2018-12-11T10:22:46.911Z,1012.98
2018-12-11T10:23:46.902Z,1012.98
2018-12-11T10:24:46.892Z,1013.01
2018-12-11T10:25:46.915Z,1012.97
2018-12-11T10:26:46.866Z,1012.97
2018-12-11T10:27:46.853Z,1013.02
2018-12-11T10:28:46.843Z,1013.02
2018-12-11T10:29:46.830Z,1013.02
2018-12-11T10:30:46.830Z,1013.00
2018-12-11T10:31:46.813Z,1012.99
2018-12-11T10:32:46.809Z,1013.00
2018-12-11T10:33:46.802Z,1013.02
2018-12-11T10:34:46.779Z,1012.98
2018-12-11T10:35:46.799Z,1012.97
2018-12-11T10:36:46.749Z,1013.03
2018-12-11T10:37:46.739Z,1013.02
2018-12-11T10:38:46.740Z,1013.01
2018-12-11T10:39:46.717Z,1012.96
2018-12-11T10:40:46.739Z,1013.00
2018-12-11T10:41:46.704Z,1012.99
2018-12-11T10:42:46.709Z,1012.96
2018-12-11T10:43:46.672Z,1012.97
2018-12-11T10:44:46.670Z,1012.93
2018-12-11T10:45:46.682Z,1012.97
2018-12-11T10:46:46.640Z,1012.97
2018-12-11T10:47:46.633Z,1012.97
2018-12-11T10:48:46.617Z,1012.95
2018-12-11T10:49:46.609Z,1012.95
2018-12-11T10:50:46.621Z,1013.02
2018-12-11T10:51:46.589Z,1013.01
2018-12-11T10:52:46.571Z,1012.99
2018-12-11T10:53:46.568Z,1012.95
2018-12-11T10:54:46.555Z,1013.01
2018-12-11T10:55:46.569Z,1012.99
2018-12-11T10:56:46.537Z,1012.94
2018-12-11T10:57:46.519Z,1012.99
2018-12-11T10:58:46.517Z,1012.96
2018-12-11T10:59:46.504Z,1012.95
2018-12-11T11:00:46.501Z,1012.99
2018-12-11T11:01:46.502Z,1012.93
2018-12-11T11:02:46.462Z,1012.95
2018-12-11T11:03:46.450Z,1012.90
2018-12-11T11:04:46.441Z,1012.91
2018-12-11T11:05:46.431Z,1012.93
2018-12-11T11:06:46.486Z,1012.91
2018-12-11T11:07:46.406Z,1012.94
2018-12-11T11:08:46.394Z,1012.97
2018-12-11T11:09:46.688Z,1012.90
2018-12-11T11:10:46.382Z,1012.96
2018-12-11T11:11:46.399Z,1012.97
2018-12-11T11:12:46.357Z,1012.95
2018-12-11T11:13:46.336Z,1012.97
2018-12-11T11:14:46.329Z,1012.95
2018-12-11T11:15:46.339Z,1012.95
2018-12-11T11:16:46.315Z,1012.94
2018-12-11T11:17:46.295Z,1012.95
2018-12-11T11:18:46.285Z,1012.91
2018-12-11T11:19:46.274Z,1012.93
2018-12-11T11:20:46.260Z,1012.90
2018-12-11T11:21:46.274Z,1012.91
2018-12-11T11:22:46.238Z,1012.88
2018-12-11T11:23:46.227Z,1012.91
2018-12-11T11:24:46.236Z,1012.85
2018-12-11T11:25:46.213Z,1012.91
2018-12-11T11:26:46.203Z,1012.92
2018-12-11T11:27:46.195Z,1012.90
2018-12-11T11:28:46.169Z,1012.92
2018-12-11T11:29:46.189Z,1012.92
2018-12-11T11:30:46.151Z,1012.94
2018-12-11T11:31:46.152Z,1012.90
2018-12-11T11:32:46.124Z,1012.93
2018-12-11T11:33:46.121Z,1012.93
2018-12-11T11:34:46.102Z,1012.90
2018-12-11T11:35:46.091Z,1012.87
2018-12-11T11:36:46.090Z,1012.80
2018-12-11T11:37:46.084Z,1012.84
2018-12-11T11:38:46.061Z,1012.89
2018-12-11T11:39:46.062Z,1012.87
2018-12-11T11:40:46.051Z,1012.88
2018-12-11T11:41:46.035Z,1012.85
2018-12-11T11:42:46.018Z,1012.85
2018-12-11T11:43:46.003Z,1012.87
2018-12-11T11:44:46.002Z,1012.88
2018-12-11T11:45:45.987Z,1012.87
2018-12-11T11:46:46.008Z,1012.89
2018-12-11T11:47:45.974Z,1012.85
2018-12-11T11:48:45.945Z,1012.87
2018-12-11T11:49:45.934Z,1012.87
2018-12-11T11:50:45.926Z,1012.85
2018-12-11T11:51:45.913Z,1012.88
2018-12-11T11:52:45.981Z,1012.87
2018-12-11T11:53:45.889Z,1012.84
2018-12-11T11:54:45.893Z,1012.89
2018-12-11T11:55:45.865Z,1012.83
2018-12-11T11:56:45.854Z,1012.85
2018-12-11T11:57:45.864Z,1012.83
2018-12-11T11:58:45.835Z,1012.84
2018-12-11T11:59:45.821Z,1012.85
2018-12-11T12:00:45.814Z,1012.84
2018-12-11T12:01:45.825Z,1012.86
2018-12-11T12:02:45.809Z,1012.89
2018-12-11T12:03:45.779Z,1012.85
2018-12-11T12:04:45.765Z,1012.86
2018-12-11T12:05:45.776Z,1012.85